sensor_id;sensor_type;location;lat;lon;timestamp;temperature;humidity
27413;DHT22;14871;52.702;5.230;2022-07-17T00:01:28;19.00;85.90
27413;DHT22;14871;52.702;5.230;2022-07-17T00:03:54;18.90;86.20
27413;DHT22;14871;52.702;5.230;2022-07-17T00:06:19;18.90;86.50
27413;DHT22;14871;52.702;5.230;2022-07-17T00:08:45;18.80;86.70
27413;DHT22;14871;52.702;5.230;2022-07-17T00:11:11;18.80;87.00
27413;DHT22;14871;52.702;5.230;2022-07-17T00:13:36;18.80;86.80
27413;DHT22;14871;52.702;5.230;2022-07-17T00:16:02;18.70;87.20
27413;DHT22;14871;52.702;5.230;2022-07-17T00:18:28;18.70;87.30
27413;DHT22;14871;52.702;5.230;2022-07-17T00:20:53;18.60;87.40
27413;DHT22;14871;52.702;5.230;2022-07-17T00:23:19;18.70;87.60
27413;DHT22;14871;52.702;5.230;2022-07-17T00:25:45;18.70;87.60
27413;DHT22;14871;52.702;5.230;2022-07-17T00:28:11;18.70;87.80
27413;DHT22;14871;52.702;5.230;2022-07-17T00:30:37;18.70;88.00
27413;DHT22;14871;52.702;5.230;2022-07-17T00:33:03;18.60;88.90
27413;DHT22;14871;52.702;5.230;2022-07-17T00:35:30;18.60;88.00
27413;DHT22;14871;52.702;5.230;2022-07-17T00:37:55;18.50;88.30
27413;DHT22;14871;52.702;5.230;2022-07-17T00:40:23;18.50;88.30
27413;DHT22;14871;52.702;5.230;2022-07-17T00:42:50;18.40;88.80
27413;DHT22;14871;52.702;5.230;2022-07-17T00:45:16;18.50;88.40
27413;DHT22;14871;52.702;5.230;2022-07-17T00:47:58;18.50;88.90
27413;DHT22;14871;52.702;5.230;2022-07-17T00:50:29;18.40;88.80
27413;DHT22;14871;52.702;5.230;2022-07-17T00:52:55;18.30;89.30
27413;DHT22;14871;52.702;5.230;2022-07-17T00:55:22;18.30;89.30
27413;DHT22;14871;52.702;5.230;2022-07-17T00:57:50;18.20;89.60
27413;DHT22;14871;52.702;5.230;2022-07-17T01:00:17;18.20;89.70
27413;DHT22;14871;52.702;5.230;2022-07-17T01:02:51;18.20;89.60
27413;DHT22;14871;52.702;5.230;2022-07-17T01:05:18;18.10;89.70
27413;DHT22;14871;52.702;5.230;2022-07-17T01:07:44;18.10;90.00
27413;DHT22;14871;52.702;5.230;2022-07-17T01:10:11;18.00;90.20
27413;DHT22;14871;52.702;5.230;2022-07-17T01:12:37;18.10;90.10
27413;DHT22;14871;52.702;5.230;2022-07-17T01:15:04;18.00;90.10
27413;DHT22;14871;52.702;5.230;2022-07-17T01:17:30;18.10;90.00
27413;DHT22;14871;52.702;5.230;2022-07-17T01:19:56;18.10;90.00
27413;DHT22;14871;52.702;5.230;2022-07-17T01:22:22;18.10;90.10
27413;DHT22;14871;52.702;5.230;2022-07-17T01:24:47;18.10;90.10
27413;DHT22;14871;52.702;5.230;2022-07-17T01:27:13;18.10;90.00
27413;DHT22;14871;52.702;5.230;2022-07-17T01:29:39;18.00;90.10
27413;DHT22;14871;52.702;5.230;2022-07-17T01:32:05;17.90;90.10
27413;DHT22;14871;52.702;5.230;2022-07-17T01:34:31;18.00;90.20
27413;DHT22;14871;52.702;5.230;2022-07-17T01:36:57;17.90;90.20
27413;DHT22;14871;52.702;5.230;2022-07-17T01:39:23;17.90;90.40
27413;DHT22;14871;52.702;5.230;2022-07-17T01:42:07;17.90;90.60
27413;DHT22;14871;52.702;5.230;2022-07-17T01:44:33;17.90;90.70
27413;DHT22;14871;52.702;5.230;2022-07-17T01:46:59;17.80;90.80
27413;DHT22;14871;52.702;5.230;2022-07-17T01:49:25;17.80;90.90
27413;DHT22;14871;52.702;5.230;2022-07-17T01:51:50;17.80;91.00
27413;DHT22;14871;52.702;5.230;2022-07-17T01:54:16;17.80;90.80
27413;DHT22;14871;52.702;5.230;2022-07-17T01:56:41;17.80;90.80
27413;DHT22;14871;52.702;5.230;2022-07-17T01:59:08;17.80;90.80
27413;DHT22;14871;52.702;5.230;2022-07-17T02:01:33;17.80;90.80
27413;DHT22;14871;52.702;5.230;2022-07-17T02:03:59;17.70;90.80
27413;DHT22;14871;52.702;5.230;2022-07-17T02:06:25;17.70;90.70
27413;DHT22;14871;52.702;5.230;2022-07-17T02:08:50;17.70;90.70
27413;DHT22;14871;52.702;5.230;2022-07-17T02:11:17;17.70;90.70
27413;DHT22;14871;52.702;5.230;2022-07-17T02:13:43;17.70;91.30
27413;DHT22;14871;52.702;5.230;2022-07-17T02:16:08;17.70;90.90
27413;DHT22;14871;52.702;5.230;2022-07-17T02:18:34;17.70;91.00
27413;DHT22;14871;52.702;5.230;2022-07-17T02:21:00;17.70;91.10
27413;DHT22;14871;52.702;5.230;2022-07-17T02:23:25;17.70;91.20
27413;DHT22;14871;52.702;5.230;2022-07-17T02:25:51;17.70;91.30
27413;DHT22;14871;52.702;5.230;2022-07-17T02:28:17;17.70;91.30
27413;DHT22;14871;52.702;5.230;2022-07-17T02:30:42;17.60;91.40
27413;DHT22;14871;52.702;5.230;2022-07-17T02:33:08;17.60;91.60
27413;DHT22;14871;52.702;5.230;2022-07-17T02:35:33;17.60;91.70
27413;DHT22;14871;52.702;5.230;2022-07-17T02:38:00;17.60;91.80
27413;DHT22;14871;52.702;5.230;2022-07-17T02:40:25;17.50;91.90
27413;DHT22;14871;52.702;5.230;2022-07-17T02:42:51;17.50;91.90
27413;DHT22;14871;52.702;5.230;2022-07-17T02:45:17;17.50;91.90
27413;DHT22;14871;52.702;5.230;2022-07-17T02:47:47;17.50;91.90
27413;DHT22;14871;52.702;5.230;2022-07-17T02:50:12;17.50;92.00
27413;DHT22;14871;52.702;5.230;2022-07-17T02:52:38;17.50;92.10
27413;DHT22;14871;52.702;5.230;2022-07-17T02:55:05;17.40;92.20
27413;DHT22;14871;52.702;5.230;2022-07-17T02:57:30;17.40;92.40
27413;DHT22;14871;52.702;5.230;2022-07-17T02:59:57;17.40;92.60
27413;DHT22;14871;52.702;5.230;2022-07-17T03:02:22;17.40;92.80
27413;DHT22;14871;52.702;5.230;2022-07-17T03:04:49;17.40;92.80
27413;DHT22;14871;52.702;5.230;2022-07-17T03:07:14;17.40;92.90
27413;DHT22;14871;52.702;5.230;2022-07-17T03:09:40;17.40;92.90
27413;DHT22;14871;52.702;5.230;2022-07-17T03:12:06;17.40;93.00
27413;DHT22;14871;52.702;5.230;2022-07-17T03:14:32;17.50;93.10
27413;DHT22;14871;52.702;5.230;2022-07-17T03:16:57;17.50;93.10
27413;DHT22;14871;52.702;5.230;2022-07-17T03:19:23;17.50;93.20
27413;DHT22;14871;52.702;5.230;2022-07-17T03:21:48;17.50;93.20
27413;DHT22;14871;52.702;5.230;2022-07-17T03:24:14;17.50;93.20
27413;DHT22;14871;52.702;5.230;2022-07-17T03:26:40;17.60;93.40
27413;DHT22;14871;52.702;5.230;2022-07-17T03:29:05;17.60;93.30
27413;DHT22;14871;52.702;5.230;2022-07-17T03:31:31;17.60;93.20
27413;DHT22;14871;52.702;5.230;2022-07-17T03:33:57;17.60;93.30
27413;DHT22;14871;52.702;5.230;2022-07-17T03:36:22;17.60;93.50
27413;DHT22;14871;52.702;5.230;2022-07-17T03:38:48;17.60;93.60
27413;DHT22;14871;52.702;5.230;2022-07-17T03:41:13;17.60;93.80
27413;DHT22;14871;52.702;5.230;2022-07-17T03:43:39;17.60;93.80
27413;DHT22;14871;52.702;5.230;2022-07-17T03:46:04;17.60;94.00
27413;DHT22;14871;52.702;5.230;2022-07-17T03:48:30;17.60;93.90
27413;DHT22;14871;52.702;5.230;2022-07-17T03:50:56;17.60;93.90
27413;DHT22;14871;52.702;5.230;2022-07-17T03:53:21;17.70;93.90
27413;DHT22;14871;52.702;5.230;2022-07-17T03:55:47;17.70;94.00
27413;DHT22;14871;52.702;5.230;2022-07-17T03:58:12;17.70;94.00
27413;DHT22;14871;52.702;5.230;2022-07-17T04:00:38;17.70;94.10
27413;DHT22;14871;52.702;5.230;2022-07-17T04:03:04;17.70;94.10
27413;DHT22;14871;52.702;5.230;2022-07-17T04:05:29;17.70;94.10
27413;DHT22;14871;52.702;5.230;2022-07-17T04:07:55;17.70;94.20
27413;DHT22;14871;52.702;5.230;2022-07-17T04:10:20;17.60;94.20
27413;DHT22;14871;52.702;5.230;2022-07-17T04:12:46;17.70;94.20
27413;DHT22;14871;52.702;5.230;2022-07-17T04:15:13;17.70;94.20
27413;DHT22;14871;52.702;5.230;2022-07-17T04:17:58;17.70;94.20
27413;DHT22;14871;52.702;5.230;2022-07-17T04:20:24;17.70;94.10
27413;DHT22;14871;52.702;5.230;2022-07-17T04:22:50;17.70;94.10
27413;DHT22;14871;52.702;5.230;2022-07-17T04:25:15;17.70;94.20
27413;DHT22;14871;52.702;5.230;2022-07-17T04:27:41;17.70;94.20
27413;DHT22;14871;52.702;5.230;2022-07-17T04:30:07;17.70;94.30
27413;DHT22;14871;52.702;5.230;2022-07-17T04:32:32;17.70;94.40
27413;DHT22;14871;52.702;5.230;2022-07-17T04:34:58;17.60;94.40
27413;DHT22;14871;52.702;5.230;2022-07-17T04:37:23;17.60;94.40
27413;DHT22;14871;52.702;5.230;2022-07-17T04:39:49;17.60;94.50
27413;DHT22;14871;52.702;5.230;2022-07-17T04:42:14;17.70;95.00
27413;DHT22;14871;52.702;5.230;2022-07-17T04:44:40;17.60;94.70
27413;DHT22;14871;52.702;5.230;2022-07-17T04:47:05;17.60;94.70
27413;DHT22;14871;52.702;5.230;2022-07-17T04:49:31;17.50;94.80
27413;DHT22;14871;52.702;5.230;2022-07-17T04:51:57;17.60;94.80
27413;DHT22;14871;52.702;5.230;2022-07-17T04:54:22;17.60;95.00
27413;DHT22;14871;52.702;5.230;2022-07-17T04:56:48;17.60;95.00
27413;DHT22;14871;52.702;5.230;2022-07-17T04:59:13;17.60;95.20
27413;DHT22;14871;52.702;5.230;2022-07-17T05:01:39;17.70;95.30
27413;DHT22;14871;52.702;5.230;2022-07-17T05:04:04;17.70;95.30
27413;DHT22;14871;52.702;5.230;2022-07-17T05:06:30;17.80;95.20
27413;DHT22;14871;52.702;5.230;2022-07-17T05:08:56;17.90;95.20
27413;DHT22;14871;52.702;5.230;2022-07-17T05:11:22;17.90;95.20
27413;DHT22;14871;52.702;5.230;2022-07-17T05:13:47;18.00;95.20
27413;DHT22;14871;52.702;5.230;2022-07-17T05:16:13;18.10;95.10
27413;DHT22;14871;52.702;5.230;2022-07-17T05:18:38;18.10;95.10
27413;DHT22;14871;52.702;5.230;2022-07-17T05:21:04;18.20;95.10
27413;DHT22;14871;52.702;5.230;2022-07-17T05:23:30;18.20;95.10
27413;DHT22;14871;52.702;5.230;2022-07-17T05:25:55;18.30;95.20
27413;DHT22;14871;52.702;5.230;2022-07-17T05:28:21;18.30;95.40
27413;DHT22;14871;52.702;5.230;2022-07-17T05:30:46;18.30;95.70
27413;DHT22;14871;52.702;5.230;2022-07-17T05:33:12;18.30;96.00
27413;DHT22;14871;52.702;5.230;2022-07-17T05:35:38;18.40;96.00
27413;DHT22;14871;52.702;5.230;2022-07-17T05:38:03;18.40;95.90
27413;DHT22;14871;52.702;5.230;2022-07-17T05:40:30;18.50;95.80
27413;DHT22;14871;52.702;5.230;2022-07-17T05:42:56;18.60;95.70
27413;DHT22;14871;52.702;5.230;2022-07-17T05:45:21;18.60;95.80
27413;DHT22;14871;52.702;5.230;2022-07-17T05:47:47;18.60;95.80
27413;DHT22;14871;52.702;5.230;2022-07-17T05:50:13;18.60;95.90
27413;DHT22;14871;52.702;5.230;2022-07-17T05:52:38;18.60;96.00
27413;DHT22;14871;52.702;5.230;2022-07-17T05:55:04;18.60;96.00
27413;DHT22;14871;52.702;5.230;2022-07-17T05:57:30;18.70;96.00
27413;DHT22;14871;52.702;5.230;2022-07-17T05:59:55;18.70;96.10
27413;DHT22;14871;52.702;5.230;2022-07-17T06:02:21;18.80;96.60
27413;DHT22;14871;52.702;5.230;2022-07-17T06:04:46;18.80;96.20
27413;DHT22;14871;52.702;5.230;2022-07-17T06:07:12;18.90;96.10
27413;DHT22;14871;52.702;5.230;2022-07-17T06:09:38;18.90;95.90
27413;DHT22;14871;52.702;5.230;2022-07-17T06:12:03;19.00;95.80
27413;DHT22;14871;52.702;5.230;2022-07-17T06:14:29;19.00;95.50
27413;DHT22;14871;52.702;5.230;2022-07-17T06:16:54;19.20;95.10
27413;DHT22;14871;52.702;5.230;2022-07-17T06:19:20;19.20;94.60
27413;DHT22;14871;52.702;5.230;2022-07-17T06:21:45;19.20;94.50
27413;DHT22;14871;52.702;5.230;2022-07-17T06:24:11;19.30;94.20
27413;DHT22;14871;52.702;5.230;2022-07-17T06:26:37;19.30;93.90
27413;DHT22;14871;52.702;5.230;2022-07-17T06:29:02;19.30;93.60
27413;DHT22;14871;52.702;5.230;2022-07-17T06:31:28;19.30;93.30
27413;DHT22;14871;52.702;5.230;2022-07-17T06:33:53;19.30;93.40
27413;DHT22;14871;52.702;5.230;2022-07-17T06:36:19;19.40;93.00
27413;DHT22;14871;52.702;5.230;2022-07-17T06:38:44;19.50;92.60
27413;DHT22;14871;52.702;5.230;2022-07-17T06:41:10;19.60;92.20
27413;DHT22;14871;52.702;5.230;2022-07-17T06:43:36;19.70;91.90
27413;DHT22;14871;52.702;5.230;2022-07-17T06:46:01;19.60;91.80
27413;DHT22;14871;52.702;5.230;2022-07-17T06:48:27;19.80;90.90
27413;DHT22;14871;52.702;5.230;2022-07-17T06:50:53;19.80;90.90
27413;DHT22;14871;52.702;5.230;2022-07-17T06:53:18;19.70;91.10
27413;DHT22;14871;52.702;5.230;2022-07-17T06:55:44;19.60;91.30
27413;DHT22;14871;52.702;5.230;2022-07-17T06:58:10;19.90;90.80
27413;DHT22;14871;52.702;5.230;2022-07-17T07:00:36;20.10;90.60
27413;DHT22;14871;52.702;5.230;2022-07-17T07:03:01;20.00;91.00
27413;DHT22;14871;52.702;5.230;2022-07-17T07:05:27;20.10;91.00
27413;DHT22;14871;52.702;5.230;2022-07-17T07:07:52;20.30;90.60
27413;DHT22;14871;52.702;5.230;2022-07-17T07:10:18;20.30;90.60
27413;DHT22;14871;52.702;5.230;2022-07-17T07:12:43;20.40;90.70
27413;DHT22;14871;52.702;5.230;2022-07-17T07:15:09;20.50;90.70
27413;DHT22;14871;52.702;5.230;2022-07-17T07:17:35;20.50;90.40
27413;DHT22;14871;52.702;5.230;2022-07-17T07:20:02;20.70;90.30
27413;DHT22;14871;52.702;5.230;2022-07-17T07:22:29;20.70;90.30
27413;DHT22;14871;52.702;5.230;2022-07-17T07:24:54;20.80;90.40
27413;DHT22;14871;52.702;5.230;2022-07-17T07:27:20;21.00;90.20
27413;DHT22;14871;52.702;5.230;2022-07-17T07:29:46;21.10;90.20
27413;DHT22;14871;52.702;5.230;2022-07-17T07:32:11;21.20;89.90
27413;DHT22;14871;52.702;5.230;2022-07-17T07:34:37;21.40;89.50
27413;DHT22;14871;52.702;5.230;2022-07-17T07:37:02;21.60;88.40
27413;DHT22;14871;52.702;5.230;2022-07-17T07:39:28;21.50;88.50
27413;DHT22;14871;52.702;5.230;2022-07-17T07:41:54;21.60;88.50
27413;DHT22;14871;52.702;5.230;2022-07-17T07:44:19;21.80;88.00
27413;DHT22;14871;52.702;5.230;2022-07-17T07:46:45;21.90;86.40
27413;DHT22;14871;52.702;5.230;2022-07-17T07:49:11;21.60;87.30
27413;DHT22;14871;52.702;5.230;2022-07-17T07:51:36;21.70;87.60
27413;DHT22;14871;52.702;5.230;2022-07-17T07:54:02;21.80;87.80
27413;DHT22;14871;52.702;5.230;2022-07-17T07:56:28;21.90;88.80
27413;DHT22;14871;52.702;5.230;2022-07-17T07:58:53;22.20;86.50
27413;DHT22;14871;52.702;5.230;2022-07-17T08:01:19;22.30;84.80
27413;DHT22;14871;52.702;5.230;2022-07-17T08:03:44;22.20;85.30
27413;DHT22;14871;52.702;5.230;2022-07-17T08:06:10;22.00;86.80
27413;DHT22;14871;52.702;5.230;2022-07-17T08:08:36;22.20;86.70
27413;DHT22;14871;52.702;5.230;2022-07-17T08:11:02;22.30;85.00
27413;DHT22;14871;52.702;5.230;2022-07-17T08:13:27;22.30;84.00
27413;DHT22;14871;52.702;5.230;2022-07-17T08:15:53;22.20;84.90
27413;DHT22;14871;52.702;5.230;2022-07-17T08:18:19;22.10;85.20
27413;DHT22;14871;52.702;5.230;2022-07-17T08:20:44;22.20;83.50
27413;DHT22;14871;52.702;5.230;2022-07-17T08:23:10;22.10;84.00
27413;DHT22;14871;52.702;5.230;2022-07-17T08:25:35;22.10;83.80
27413;DHT22;14871;52.702;5.230;2022-07-17T08:28:01;22.00;84.70
27413;DHT22;14871;52.702;5.230;2022-07-17T08:30:27;22.10;84.80
27413;DHT22;14871;52.702;5.230;2022-07-17T08:32:53;22.20;85.30
27413;DHT22;14871;52.702;5.230;2022-07-17T08:35:18;22.30;83.70
27413;DHT22;14871;52.702;5.230;2022-07-17T08:37:49;22.50;83.70
27413;DHT22;14871;52.702;5.230;2022-07-17T08:40:16;22.60;82.10
27413;DHT22;14871;52.702;5.230;2022-07-17T08:42:42;22.50;82.10
27413;DHT22;14871;52.702;5.230;2022-07-17T08:45:09;22.60;81.70
27413;DHT22;14871;52.702;5.230;2022-07-17T08:47:36;22.60;81.80
27413;DHT22;14871;52.702;5.230;2022-07-17T08:50:02;22.90;80.40
27413;DHT22;14871;52.702;5.230;2022-07-17T08:52:28;22.90;79.60
27413;DHT22;14871;52.702;5.230;2022-07-17T08:54:54;22.90;80.50
27413;DHT22;14871;52.702;5.230;2022-07-17T08:57:20;23.10;79.70
27413;DHT22;14871;52.702;5.230;2022-07-17T08:59:49;23.20;79.20
27413;DHT22;14871;52.702;5.230;2022-07-17T09:02:15;23.40;78.90
27413;DHT22;14871;52.702;5.230;2022-07-17T09:04:41;23.50;78.40
27413;DHT22;14871;52.702;5.230;2022-07-17T09:07:06;23.50;78.00
27413;DHT22;14871;52.702;5.230;2022-07-17T09:09:33;23.60;78.00
27413;DHT22;14871;52.702;5.230;2022-07-17T09:12:00;23.60;77.80
27413;DHT22;14871;52.702;5.230;2022-07-17T09:14:37;23.80;76.20
27413;DHT22;14871;52.702;5.230;2022-07-17T09:17:04;23.90;76.80
27413;DHT22;14871;52.702;5.230;2022-07-17T09:19:40;24.00;76.60
27413;DHT22;14871;52.702;5.230;2022-07-17T09:22:15;24.10;76.40
27413;DHT22;14871;52.702;5.230;2022-07-17T09:27:07;24.20;76.50
27413;DHT22;14871;52.702;5.230;2022-07-17T09:29:33;24.20;76.70
27413;DHT22;14871;52.702;5.230;2022-07-17T09:32:00;24.30;76.10
27413;DHT22;14871;52.702;5.230;2022-07-17T09:34:25;24.20;76.00
27413;DHT22;14871;52.702;5.230;2022-07-17T09:37:01;24.30;75.00
27413;DHT22;14871;52.702;5.230;2022-07-17T09:39:37;24.50;74.10
27413;DHT22;14871;52.702;5.230;2022-07-17T09:42:03;24.60;73.60
27413;DHT22;14871;52.702;5.230;2022-07-17T09:44:29;24.70;73.00
27413;DHT22;14871;52.702;5.230;2022-07-17T09:46:55;24.80;72.40
27413;DHT22;14871;52.702;5.230;2022-07-17T09:49:25;24.80;72.10
27413;DHT22;14871;52.702;5.230;2022-07-17T09:51:52;24.80;72.00
27413;DHT22;14871;52.702;5.230;2022-07-17T09:54:20;24.90;71.50
27413;DHT22;14871;52.702;5.230;2022-07-17T09:56:49;25.00;70.70
27413;DHT22;14871;52.702;5.230;2022-07-17T09:59:16;25.10;70.40
27413;DHT22;14871;52.702;5.230;2022-07-17T10:01:44;25.10;70.90
27413;DHT22;14871;52.702;5.230;2022-07-17T10:04:11;25.30;70.60
27413;DHT22;14871;52.702;5.230;2022-07-17T10:06:37;25.30;70.00
27413;DHT22;14871;52.702;5.230;2022-07-17T10:09:03;25.40;69.90
27413;DHT22;14871;52.702;5.230;2022-07-17T10:11:32;25.40;69.10
27413;DHT22;14871;52.702;5.230;2022-07-17T10:14:11;25.40;68.80
27413;DHT22;14871;52.702;5.230;2022-07-17T10:16:37;25.50;67.70
27413;DHT22;14871;52.702;5.230;2022-07-17T10:19:15;25.60;67.40
27413;DHT22;14871;52.702;5.230;2022-07-17T10:21:52;25.70;66.40
27413;DHT22;14871;52.702;5.230;2022-07-17T10:24:19;25.80;65.80
27413;DHT22;14871;52.702;5.230;2022-07-17T10:26:44;25.70;65.90
27413;DHT22;14871;52.702;5.230;2022-07-17T10:31:57;25.90;64.70
27413;DHT22;14871;52.702;5.230;2022-07-17T10:34:47;26.00;64.80
27413;DHT22;14871;52.702;5.230;2022-07-17T10:40:02;26.20;64.10
27413;DHT22;14871;52.702;5.230;2022-07-17T10:42:55;26.30;59.20
27413;DHT22;14871;52.702;5.230;2022-07-17T10:45:35;26.20;62.40
27413;DHT22;14871;52.702;5.230;2022-07-17T10:50:43;26.40;59.40
27413;DHT22;14871;52.702;5.230;2022-07-17T10:53:22;26.40;59.90
27413;DHT22;14871;52.702;5.230;2022-07-17T10:55:53;26.50;59.50
27413;DHT22;14871;52.702;5.230;2022-07-17T10:58:25;26.60;59.70
27413;DHT22;14871;52.702;5.230;2022-07-17T11:03:43;26.50;59.80
27413;DHT22;14871;52.702;5.230;2022-07-17T11:08:48;26.60;58.60
27413;DHT22;14871;52.702;5.230;2022-07-17T11:11:15;26.60;59.10
27413;DHT22;14871;52.702;5.230;2022-07-17T11:13:41;26.80;58.40
27413;DHT22;14871;52.702;5.230;2022-07-17T11:16:06;26.90;57.20
27413;DHT22;14871;52.702;5.230;2022-07-17T11:18:32;27.00;56.60
27413;DHT22;14871;52.702;5.230;2022-07-17T11:21:00;27.10;55.80
27413;DHT22;14871;52.702;5.230;2022-07-17T11:23:28;27.10;56.40
27413;DHT22;14871;52.702;5.230;2022-07-17T11:26:06;27.10;56.80
27413;DHT22;14871;52.702;5.230;2022-07-17T11:28:42;27.30;55.30
27413;DHT22;14871;52.702;5.230;2022-07-17T11:31:23;27.30;54.70
27413;DHT22;14871;52.702;5.230;2022-07-17T11:36:20;27.20;54.40
27413;DHT22;14871;52.702;5.230;2022-07-17T11:38:46;27.20;54.60
27413;DHT22;14871;52.702;5.230;2022-07-17T11:41:12;27.40;56.10
27413;DHT22;14871;52.702;5.230;2022-07-17T11:43:41;27.60;56.30
27413;DHT22;14871;52.702;5.230;2022-07-17T11:46:07;27.80;55.70
27413;DHT22;14871;52.702;5.230;2022-07-17T11:48:34;27.90;55.20
27413;DHT22;14871;52.702;5.230;2022-07-17T11:51:00;28.00;54.70
27413;DHT22;14871;52.702;5.230;2022-07-17T11:53:36;28.10;55.10
27413;DHT22;14871;52.702;5.230;2022-07-17T11:56:03;28.10;54.50
27413;DHT22;14871;52.702;5.230;2022-07-17T11:58:44;28.10;54.10
27413;DHT22;14871;52.702;5.230;2022-07-17T12:01:11;28.00;55.40
27413;DHT22;14871;52.702;5.230;2022-07-17T12:03:36;28.00;54.20
27413;DHT22;14871;52.702;5.230;2022-07-17T12:06:02;28.00;54.50
27413;DHT22;14871;52.702;5.230;2022-07-17T12:08:28;28.00;53.40
27413;DHT22;14871;52.702;5.230;2022-07-17T12:11:08;27.80;53.60
27413;DHT22;14871;52.702;5.230;2022-07-17T12:13:42;27.90;54.20
27413;DHT22;14871;52.702;5.230;2022-07-17T12:18:43;28.20;52.90
27413;DHT22;14871;52.702;5.230;2022-07-17T12:21:09;28.20;53.70
27413;DHT22;14871;52.702;5.230;2022-07-17T12:23:39;28.20;52.60
27413;DHT22;14871;52.702;5.230;2022-07-17T12:26:10;28.30;52.70
27413;DHT22;14871;52.702;5.230;2022-07-17T12:28:37;28.40;51.50
27413;DHT22;14871;52.702;5.230;2022-07-17T12:31:03;28.40;52.10
27413;DHT22;14871;52.702;5.230;2022-07-17T12:33:29;28.50;52.50
27413;DHT22;14871;52.702;5.230;2022-07-17T12:35:54;28.50;52.60
27413;DHT22;14871;52.702;5.230;2022-07-17T12:38:20;28.60;52.00
27413;DHT22;14871;52.702;5.230;2022-07-17T12:40:46;28.40;52.00
27413;DHT22;14871;52.702;5.230;2022-07-17T12:43:12;28.60;52.30
27413;DHT22;14871;52.702;5.230;2022-07-17T12:45:38;28.60;52.30
27413;DHT22;14871;52.702;5.230;2022-07-17T12:48:04;28.80;51.90
27413;DHT22;14871;52.702;5.230;2022-07-17T12:50:30;28.80;51.80
27413;DHT22;14871;52.702;5.230;2022-07-17T12:52:55;28.90;52.50
27413;DHT22;14871;52.702;5.230;2022-07-17T12:55:21;28.90;52.50
27413;DHT22;14871;52.702;5.230;2022-07-17T12:57:47;29.10;52.00
27413;DHT22;14871;52.702;5.230;2022-07-17T13:00:13;29.20;50.20
27413;DHT22;14871;52.702;5.230;2022-07-17T13:02:39;28.90;50.70
27413;DHT22;14871;52.702;5.230;2022-07-17T13:05:05;28.80;51.20
27413;DHT22;14871;52.702;5.230;2022-07-17T13:07:31;28.90;51.10
27413;DHT22;14871;52.702;5.230;2022-07-17T13:09:57;29.00;51.60
27413;DHT22;14871;52.702;5.230;2022-07-17T13:12:23;29.10;51.00
27413;DHT22;14871;52.702;5.230;2022-07-17T13:14:48;29.20;50.50
27413;DHT22;14871;52.702;5.230;2022-07-17T13:17:14;29.20;51.60
27413;DHT22;14871;52.702;5.230;2022-07-17T13:19:41;29.30;51.00
27413;DHT22;14871;52.702;5.230;2022-07-17T13:22:06;29.30;50.60
27413;DHT22;14871;52.702;5.230;2022-07-17T13:24:32;29.30;51.10
27413;DHT22;14871;52.702;5.230;2022-07-17T13:26:58;29.40;51.50
27413;DHT22;14871;52.702;5.230;2022-07-17T13:29:25;29.50;50.40
27413;DHT22;14871;52.702;5.230;2022-07-17T13:31:54;29.50;49.80
27413;DHT22;14871;52.702;5.230;2022-07-17T13:34:21;29.50;50.70
27413;DHT22;14871;52.702;5.230;2022-07-17T13:36:47;29.40;51.20
27413;DHT22;14871;52.702;5.230;2022-07-17T13:39:13;29.40;51.80
27413;DHT22;14871;52.702;5.230;2022-07-17T13:41:40;29.50;50.10
27413;DHT22;14871;52.702;5.230;2022-07-17T13:44:06;29.30;51.50
27413;DHT22;14871;52.702;5.230;2022-07-17T13:46:32;29.40;51.60
27413;DHT22;14871;52.702;5.230;2022-07-17T13:48:57;29.50;51.80
27413;DHT22;14871;52.702;5.230;2022-07-17T13:51:23;29.50;50.90
27413;DHT22;14871;52.702;5.230;2022-07-17T13:53:49;29.50;50.70
27413;DHT22;14871;52.702;5.230;2022-07-17T13:56:15;29.50;49.80
27413;DHT22;14871;52.702;5.230;2022-07-17T13:58:40;29.50;49.20
27413;DHT22;14871;52.702;5.230;2022-07-17T14:01:06;29.60;49.50
27413;DHT22;14871;52.702;5.230;2022-07-17T14:03:32;29.70;50.40
27413;DHT22;14871;52.702;5.230;2022-07-17T14:05:58;29.80;50.40
27413;DHT22;14871;52.702;5.230;2022-07-17T14:08:24;29.80;49.30
27413;DHT22;14871;52.702;5.230;2022-07-17T14:10:50;29.90;49.50
27413;DHT22;14871;52.702;5.230;2022-07-17T14:13:16;29.90;48.30
27413;DHT22;14871;52.702;5.230;2022-07-17T14:15:41;29.90;49.80
27413;DHT22;14871;52.702;5.230;2022-07-17T14:18:07;30.00;49.30
27413;DHT22;14871;52.702;5.230;2022-07-17T14:20:32;30.00;49.30
27413;DHT22;14871;52.702;5.230;2022-07-17T14:22:58;30.10;48.70
27413;DHT22;14871;52.702;5.230;2022-07-17T14:25:24;30.10;48.60
27413;DHT22;14871;52.702;5.230;2022-07-17T14:27:49;30.10;49.10
27413;DHT22;14871;52.702;5.230;2022-07-17T14:30:15;30.10;48.70
27413;DHT22;14871;52.702;5.230;2022-07-17T14:32:41;30.20;48.10
27413;DHT22;14871;52.702;5.230;2022-07-17T14:35:07;30.10;47.90
27413;DHT22;14871;52.702;5.230;2022-07-17T14:37:34;30.10;48.10
27413;DHT22;14871;52.702;5.230;2022-07-17T14:39:59;30.00;47.80
27413;DHT22;14871;52.702;5.230;2022-07-17T14:42:26;29.90;48.80
27413;DHT22;14871;52.702;5.230;2022-07-17T14:44:52;29.90;47.40
27413;DHT22;14871;52.702;5.230;2022-07-17T14:47:17;29.80;48.20
27413;DHT22;14871;52.702;5.230;2022-07-17T14:49:43;29.70;49.20
27413;DHT22;14871;52.702;5.230;2022-07-17T14:52:09;29.70;48.90
27413;DHT22;14871;52.702;5.230;2022-07-17T14:54:34;29.70;48.10
27413;DHT22;14871;52.702;5.230;2022-07-17T14:57:00;29.60;47.60
27413;DHT22;14871;52.702;5.230;2022-07-17T14:59:26;29.60;47.70
27413;DHT22;14871;52.702;5.230;2022-07-17T15:01:52;29.60;48.70
27413;DHT22;14871;52.702;5.230;2022-07-17T15:04:17;29.60;48.40
27413;DHT22;14871;52.702;5.230;2022-07-17T15:06:43;29.70;47.80
27413;DHT22;14871;52.702;5.230;2022-07-17T15:09:10;29.70;48.00
27413;DHT22;14871;52.702;5.230;2022-07-17T15:11:35;29.60;48.50
27413;DHT22;14871;52.702;5.230;2022-07-17T15:14:01;29.70;48.60
27413;DHT22;14871;52.702;5.230;2022-07-17T15:16:27;29.80;48.40
27413;DHT22;14871;52.702;5.230;2022-07-17T15:18:52;29.60;48.80
27413;DHT22;14871;52.702;5.230;2022-07-17T15:21:18;29.70;48.90
27413;DHT22;14871;52.702;5.230;2022-07-17T15:23:44;29.60;49.20
27413;DHT22;14871;52.702;5.230;2022-07-17T15:26:09;29.60;49.70
27413;DHT22;14871;52.702;5.230;2022-07-17T15:28:35;29.70;49.10
27413;DHT22;14871;52.702;5.230;2022-07-17T15:31:01;29.70;50.00
27413;DHT22;14871;52.702;5.230;2022-07-17T15:33:26;29.70;49.70
27413;DHT22;14871;52.702;5.230;2022-07-17T15:35:52;29.60;50.10
27413;DHT22;14871;52.702;5.230;2022-07-17T15:38:18;29.70;49.20
27413;DHT22;14871;52.702;5.230;2022-07-17T15:40:44;29.60;49.30
27413;DHT22;14871;52.702;5.230;2022-07-17T15:43:09;29.60;49.30
27413;DHT22;14871;52.702;5.230;2022-07-17T15:45:35;29.60;49.30
27413;DHT22;14871;52.702;5.230;2022-07-17T15:48:01;29.60;49.20